createdAt,value
2023-01-07T00:00:21.994Z,5.53
2023-01-07T00:02:57.251Z,7.85
2023-01-07T00:05:25.394Z,6.93
2023-01-07T00:07:55.156Z,7.70
2023-01-07T00:10:23.337Z,9.82
2023-01-07T00:12:51.607Z,7.38
2023-01-07T00:15:19.783Z,8.98
2023-01-07T00:17:48.002Z,10.80
2023-01-07T00:20:16.591Z,8.45
2023-01-07T00:22:45.011Z,9.20
2023-01-07T00:25:17.257Z,8.60
2023-01-07T00:27:45.687Z,9.68
2023-01-07T00:30:16.289Z,8.68
2023-01-07T00:33:04.661Z,9.15
2023-01-07T00:35:34.372Z,11.18
2023-01-07T00:38:08.214Z,9.18
2023-01-07T00:40:38.202Z,11.27
2023-01-07T00:43:06.997Z,12.25
2023-01-07T00:45:36.718Z,12.63
2023-01-07T00:48:06.144Z,9.32
2023-01-07T00:50:36.749Z,9.95
2023-01-07T00:53:05.561Z,10.35
2023-01-07T00:55:34.351Z,10.95
2023-01-07T00:58:03.987Z,11.15
2023-01-07T01:00:33.009Z,11.13
2023-01-07T01:03:01.713Z,9.65
2023-01-07T01:05:29.928Z,12.32
2023-01-07T01:07:59.523Z,11.23
2023-01-07T01:10:27.983Z,11.23
2023-01-07T01:12:58.739Z,11.13
2023-01-07T01:15:28.731Z,12.32
2023-01-07T01:17:57.453Z,9.18
2023-01-07T01:20:25.754Z,12.60
2023-01-07T01:22:53.970Z,10.55
2023-01-07T01:25:22.095Z,9.27
2023-01-07T01:27:50.437Z,10.20
2023-01-07T01:30:18.775Z,9.00
2023-01-07T01:32:48.483Z,11.48
2023-01-07T01:35:16.967Z,9.52
2023-01-07T01:37:45.595Z,11.48
2023-01-07T01:40:14.181Z,9.90
2023-01-07T01:42:42.429Z,10.32
2023-01-07T01:45:13.077Z,11.43
2023-01-07T01:47:51.286Z,10.15
2023-01-07T01:50:24.917Z,13.88
2023-01-07T01:52:57.206Z,13.25
2023-01-07T01:55:29.850Z,10.43
2023-01-07T01:58:03.739Z,13.10
2023-01-07T02:00:33.680Z,13.98
2023-01-07T02:03:03.837Z,12.05
2023-01-07T02:05:36.859Z,11.88
2023-01-07T02:08:05.929Z,13.48
2023-01-07T02:10:35.164Z,12.25
2023-01-07T02:13:24.805Z,12.50
2023-01-07T02:16:00.682Z,12.70
2023-01-07T02:18:56.906Z,13.45
2023-01-07T02:21:38.045Z,14.32
2023-01-07T02:24:56.719Z,13.02
2023-01-07T02:28:00.859Z,12.05
2023-01-07T02:31:02.518Z,12.60
2023-01-07T02:33:42.611Z,14.55
2023-01-07T02:36:35.878Z,14.85
2023-01-07T02:39:16.503Z,14.30
2023-01-07T02:41:52.720Z,15.25
2023-01-07T02:44:30.704Z,14.88
2023-01-07T02:47:06.177Z,14.45
2023-01-07T02:49:36.739Z,14.13
2023-01-07T02:52:22.918Z,14.98
2023-01-07T02:54:56.005Z,14.20
2023-01-07T02:58:06.697Z,15.30
2023-01-07T03:01:00.843Z,15.07
2023-01-07T03:03:43.864Z,13.88
2023-01-07T03:06:33.270Z,14.43
2023-01-07T03:09:08.170Z,16.45
2023-01-07T03:11:43.306Z,13.48
2023-01-07T03:14:19.765Z,13.00
2023-01-07T03:16:54.430Z,11.93
2023-01-07T03:19:26.628Z,14.18
2023-01-07T03:21:59.332Z,12.30
2023-01-07T03:24:31.091Z,13.23
2023-01-07T03:27:01.925Z,12.85
2023-01-07T03:29:32.206Z,11.38
2023-01-07T03:32:08.345Z,10.88
2023-01-07T03:34:40.925Z,12.50
2023-01-07T03:37:13.409Z,10.05
2023-01-07T03:39:42.509Z,11.00
2023-01-07T03:42:44.052Z,9.77
2023-01-07T03:45:15.882Z,10.90
2023-01-07T03:47:46.700Z,10.60
2023-01-07T03:50:15.221Z,9.25
2023-01-07T03:52:44.791Z,11.63
2023-01-07T03:55:13.370Z,10.50
2023-01-07T03:57:41.583Z,10.63
2023-01-07T04:00:12.473Z,10.02
2023-01-07T04:02:40.804Z,9.13
2023-01-07T04:05:10.545Z,8.35
2023-01-07T04:07:38.985Z,7.93
2023-01-07T04:10:09.963Z,8.18
2023-01-07T04:12:38.173Z,9.10
2023-01-07T04:15:07.333Z,9.80
2023-01-07T04:17:35.581Z,8.50
2023-01-07T04:20:04.070Z,7.38
2023-01-07T04:22:32.827Z,7.32
2023-01-07T04:25:01.114Z,9.05
2023-01-07T04:27:30.962Z,10.43
2023-01-07T04:29:59.056Z,8.95
2023-01-07T04:32:27.442Z,9.57
2023-01-07T04:34:56.273Z,9.07
2023-01-07T04:37:24.702Z,8.00
2023-01-07T04:39:52.895Z,7.90
2023-01-07T04:42:24.097Z,7.80
2023-01-07T04:44:53.765Z,7.82
2023-01-07T04:47:22.034Z,7.90
2023-01-07T04:49:50.148Z,10.82
2023-01-07T04:52:18.410Z,7.95
2023-01-07T04:54:46.529Z,7.25
2023-01-07T04:57:14.707Z,6.65
2023-01-07T04:59:42.878Z,9.43
2023-01-07T05:02:12.488Z,6.18
2023-01-07T05:04:40.747Z,7.25
2023-01-07T05:07:09.475Z,4.55
2023-01-07T05:09:37.676Z,9.13
2023-01-07T05:12:09.201Z,5.72
2023-01-07T05:14:37.575Z,6.70
2023-01-07T05:17:05.784Z,5.78
2023-01-07T05:19:35.431Z,7.32
2023-01-07T05:22:03.664Z,4.50
2023-01-07T05:24:33.790Z,4.97
2023-01-07T05:27:02.438Z,5.97
2023-01-07T05:29:30.707Z,5.70
2023-01-07T05:31:59.266Z,7.22
2023-01-07T05:34:27.451Z,7.05
2023-01-07T05:36:57.241Z,4.57
2023-01-07T05:39:26.054Z,4.53
2023-01-07T05:41:54.262Z,4.20
2023-01-07T05:44:22.836Z,3.80
2023-01-07T05:46:51.061Z,4.65
2023-01-07T05:49:19.404Z,3.97
2023-01-07T05:51:47.636Z,5.72
2023-01-07T05:54:17.674Z,4.30
2023-01-07T05:56:45.885Z,4.47
2023-01-07T05:59:14.433Z,5.10
2023-01-07T06:01:42.706Z,5.38
2023-01-07T06:04:10.983Z,4.45
2023-01-07T06:06:39.477Z,4.88
2023-01-07T06:09:09.605Z,5.30
2023-01-07T06:11:39.641Z,6.35
2023-01-07T06:14:07.931Z,4.90
2023-01-07T06:16:36.078Z,5.82
2023-01-07T06:19:04.318Z,5.75
2023-01-07T06:21:33.556Z,6.30
2023-01-07T06:24:04.094Z,6.22
2023-01-07T06:26:32.342Z,8.05
2023-01-07T06:29:01.947Z,5.00
2023-01-07T06:31:30.192Z,6.80
2023-01-07T06:33:58.311Z,6.60
2023-01-07T06:36:26.719Z,6.28
2023-01-07T06:38:55.118Z,5.68
2023-01-07T06:41:23.329Z,5.30
2023-01-07T06:43:51.486Z,7.07
2023-01-07T06:46:33.457Z,4.90
2023-01-07T06:49:01.641Z,6.20
2023-01-07T06:51:29.761Z,4.82
2023-01-07T06:53:58.485Z,5.60
2023-01-07T06:56:26.654Z,8.40
2023-01-07T06:58:55.048Z,6.07
2023-01-07T07:01:24.897Z,5.63
2023-01-07T07:03:53.192Z,4.53
2023-01-07T07:06:21.433Z,4.80
2023-01-07T07:08:49.557Z,5.95
2023-01-07T07:11:18.112Z,5.97
2023-01-07T07:13:46.374Z,5.00
2023-01-07T07:16:14.727Z,4.25
2023-01-07T07:18:44.342Z,5.28
2023-01-07T07:21:12.543Z,6.32
2023-01-07T07:23:40.653Z,5.47
2023-01-07T07:26:09.985Z,5.22
2023-01-07T07:28:38.173Z,6.22
2023-01-07T07:31:06.697Z,5.00
2023-01-07T07:33:34.874Z,4.30
2023-01-07T07:36:07.883Z,7.13
2023-01-07T07:38:36.047Z,5.38
2023-01-07T07:41:04.201Z,4.60
2023-01-07T07:43:32.423Z,4.60
2023-01-07T07:46:00.531Z,4.55
2023-01-07T07:48:28.936Z,3.60
2023-01-07T07:50:57.177Z,3.83
2023-01-07T07:53:27.018Z,5.55
2023-01-07T07:55:55.202Z,4.88
2023-01-07T07:58:23.453Z,4.10
2023-01-07T08:00:51.705Z,3.47
2023-01-07T08:03:20.162Z,2.40
2023-01-07T08:05:48.361Z,4.30
2023-01-07T08:08:16.764Z,2.40
2023-01-07T08:10:46.708Z,2.28
2023-01-07T08:13:14.860Z,2.45
2023-01-07T08:15:43.414Z,2.10
2023-01-07T08:18:11.743Z,2.05
2023-01-07T08:20:39.954Z,3.45
2023-01-07T08:23:09.991Z,1.92
2023-01-07T08:25:38.362Z,2.05
2023-01-07T08:28:08.534Z,1.95
2023-01-07T08:30:36.694Z,2.47
2023-01-07T08:33:06.561Z,1.75
2023-01-07T08:35:35.199Z,1.58
2023-01-07T08:38:05.094Z,1.52
2023-01-07T08:40:33.702Z,1.52
2023-01-07T08:43:02.551Z,3.33
2023-01-07T08:45:35.489Z,2.00
2023-01-07T08:48:03.808Z,1.60
2023-01-07T08:50:33.941Z,2.58
2023-01-07T08:53:08.775Z,2.08
2023-01-07T08:55:37.428Z,1.80
2023-01-07T08:58:06.765Z,2.10
2023-01-07T09:00:36.417Z,3.17
2023-01-07T09:03:05.488Z,1.20
2023-01-07T09:05:35.274Z,2.33
2023-01-07T09:08:03.936Z,1.48
2023-01-07T09:10:32.345Z,2.60
2023-01-07T09:13:03.007Z,1.63
2023-01-07T09:15:31.243Z,1.90
2023-01-07T09:18:03.548Z,3.95
2023-01-07T09:20:32.049Z,1.10
2023-01-07T09:23:00.232Z,3.15
2023-01-07T09:25:28.664Z,1.15
2023-01-07T09:27:56.802Z,1.45
2023-01-07T09:30:25.141Z,1.42
2023-01-07T09:32:53.351Z,1.27
2023-01-07T09:35:23.804Z,1.20
2023-01-07T09:37:52.016Z,0.88
2023-01-07T09:40:26.224Z,1.02
2023-01-07T09:43:03.236Z,3.75
2023-01-07T09:45:36.170Z,1.67
2023-01-07T09:48:11.001Z,0.80
2023-01-07T09:50:48.632Z,1.30
2023-01-07T09:53:20.889Z,1.50
2023-01-07T09:56:10.578Z,0.50
2023-01-07T09:58:42.809Z,0.75
2023-01-07T10:01:24.588Z,1.27
2023-01-07T10:04:03.235Z,1.67
2023-01-07T10:06:43.803Z,3.17
2023-01-07T10:09:26.260Z,1.50
2023-01-07T10:12:05.647Z,0.60
2023-01-07T10:15:22.309Z,4.07
2023-01-07T10:18:35.952Z,1.42
2023-01-07T10:21:14.056Z,4.20
2023-01-07T10:23:47.379Z,3.80
2023-01-07T10:26:31.544Z,0.95
2023-01-07T10:29:07.915Z,0.80
2023-01-07T10:32:12.781Z,1.17
2023-01-07T10:34:50.445Z,0.80
2023-01-07T10:37:23.955Z,0.90
2023-01-07T10:40:34.080Z,1.27
2023-01-07T10:43:10.274Z,0.75
2023-01-07T10:46:12.407Z,0.90
2023-01-07T10:48:53.886Z,1.48
2023-01-07T10:51:45.461Z,1.65
2023-01-07T10:54:29.216Z,1.77
2023-01-07T10:57:03.849Z,0.85
2023-01-07T10:59:32.225Z,1.13
2023-01-07T11:02:01.642Z,0.85
2023-01-07T11:04:30.274Z,2.78
2023-01-07T11:07:04.166Z,1.08
2023-01-07T11:09:36.607Z,0.85
2023-01-07T11:12:18.554Z,0.70
2023-01-07T11:14:51.897Z,0.70
2023-01-07T11:17:30.510Z,2.08
2023-01-07T11:19:58.717Z,0.60
2023-01-07T11:22:33.349Z,0.90
2023-01-07T11:25:02.806Z,1.60
2023-01-07T11:27:35.406Z,1.67
2023-01-07T11:30:07.472Z,0.80
2023-01-07T11:32:40.191Z,0.50
2023-01-07T11:35:21.757Z,0.73
2023-01-07T11:37:51.452Z,2.67
2023-01-07T11:40:23.197Z,2.20
2023-01-07T11:42:56.201Z,0.40
2023-01-07T11:45:27.004Z,0.98
2023-01-07T11:48:02.256Z,1.38
2023-01-07T11:50:35.454Z,0.93
2023-01-07T11:53:21.035Z,0.68
2023-01-07T11:56:07.685Z,1.00
2023-01-07T11:58:39.371Z,1.30
2023-01-07T12:01:20.117Z,0.70
2023-01-07T12:04:12.280Z,0.90
2023-01-07T12:06:42.926Z,0.40
2023-01-07T12:09:22.250Z,2.15
2023-01-07T12:11:51.267Z,0.80
2023-01-07T12:14:29.652Z,3.40
2023-01-07T12:17:10.295Z,0.80
2023-01-07T12:19:56.425Z,0.63
2023-01-07T12:22:36.249Z,0.43
2023-01-07T12:25:28.663Z,1.95
2023-01-07T12:28:08.266Z,1.25
2023-01-07T12:31:02.021Z,1.27
2023-01-07T12:33:47.450Z,0.45
2023-01-07T12:36:21.225Z,0.70
2023-01-07T12:38:50.946Z,0.73
2023-01-07T12:41:23.439Z,0.45
2023-01-07T12:44:01.317Z,1.65
2023-01-07T12:46:38.785Z,0.75
2023-01-07T12:49:12.924Z,0.60
2023-01-07T12:51:45.305Z,0.70
2023-01-07T12:54:18.821Z,0.50
2023-01-07T12:56:55.109Z,1.15
2023-01-07T12:59:46.201Z,0.60
2023-01-07T13:02:27.836Z,1.08
2023-01-07T13:05:05.733Z,2.17
2023-01-07T13:07:41.446Z,0.75
2023-01-07T13:10:17.638Z,0.68
2023-01-07T13:12:47.981Z,0.68
2023-01-07T13:15:23.200Z,0.60
2023-01-07T13:17:54.654Z,1.40
2023-01-07T13:20:54.199Z,2.15
2023-01-07T13:23:28.461Z,1.35
2023-01-07T13:26:10.686Z,2.08
2023-01-07T13:29:18.104Z,1.23
2023-01-07T13:32:27.905Z,0.60
2023-01-07T13:35:14.250Z,0.95
2023-01-07T13:38:02.992Z,1.00
2023-01-07T13:40:49.558Z,0.95
2023-01-07T13:43:32.338Z,1.20
2023-01-07T13:46:04.341Z,2.30
2023-01-07T13:48:34.794Z,2.05
2023-01-07T13:51:06.723Z,1.52
2023-01-07T13:53:46.897Z,1.58
2023-01-07T13:56:39.895Z,1.05
2023-01-07T13:59:28.658Z,1.92
2023-01-07T14:02:22.037Z,1.60
2023-01-07T14:04:52.737Z,1.13
2023-01-07T14:07:22.518Z,1.85
2023-01-07T14:09:55.592Z,2.85
2023-01-07T14:13:02.977Z,1.17
2023-01-07T14:16:07.259Z,1.95
2023-01-07T14:19:04.166Z,5.43
2023-01-07T14:22:00.655Z,1.95
2023-01-07T14:25:10.613Z,1.70
2023-01-07T14:28:06.392Z,2.45
2023-01-07T14:30:45.714Z,1.27
2023-01-07T14:33:20.665Z,2.50
2023-01-07T14:35:57.401Z,2.33
2023-01-07T14:39:02.485Z,1.23
2023-01-07T14:41:30.758Z,1.10
2023-01-07T14:44:23.687Z,1.45
2023-01-07T14:46:53.857Z,1.80
2023-01-07T14:49:45.341Z,1.08
2023-01-07T14:52:25.494Z,1.40
2023-01-07T14:55:22.156Z,1.38
2023-01-07T14:58:07.410Z,3.33
2023-01-07T15:01:21.965Z,2.05
2023-01-07T15:04:03.190Z,3.00
2023-01-07T15:06:35.337Z,1.77
2023-01-07T15:09:27.268Z,2.25
2023-01-07T15:12:17.554Z,1.20
2023-01-07T15:15:03.912Z,1.55
2023-01-07T15:17:34.066Z,2.42
2023-01-07T15:20:06.479Z,1.45
2023-01-07T15:23:00.752Z,2.95
2023-01-07T15:25:41.822Z,4.53
2023-01-07T15:28:16.052Z,1.50
2023-01-07T15:30:54.386Z,1.38
2023-01-07T15:33:48.407Z,1.33
2023-01-07T15:36:17.793Z,1.60
2023-01-07T15:38:50.596Z,3.80
2023-01-07T15:41:29.229Z,2.35
2023-01-07T15:43:58.934Z,1.85
2023-01-07T15:46:28.108Z,1.58
2023-01-07T15:49:15.733Z,2.42
2023-01-07T15:51:45.724Z,2.25
2023-01-07T15:54:30.727Z,1.80
2023-01-07T15:57:02.751Z,0.98
2023-01-07T15:59:34.450Z,1.20
2023-01-07T16:02:14.906Z,2.72
2023-01-07T16:04:48.465Z,1.73
2023-01-07T16:07:24.363Z,5.13
2023-01-07T16:09:53.347Z,1.67
2023-01-07T16:12:32.521Z,2.92
2023-01-07T16:15:01.761Z,1.48
2023-01-07T16:17:30.661Z,0.90
2023-01-07T16:20:21.700Z,1.70
2023-01-07T16:22:50.924Z,2.00
2023-01-07T16:25:35.197Z,2.22
2023-01-07T16:28:04.624Z,5.32
2023-01-07T16:30:33.875Z,2.10
2023-01-07T16:33:03.099Z,3.55
2023-01-07T16:35:35.707Z,2.50
2023-01-07T16:38:05.127Z,1.80
2023-01-07T16:40:36.910Z,2.38
2023-01-07T16:43:05.952Z,1.77
2023-01-07T16:45:36.010Z,1.90
2023-01-07T16:48:21.488Z,2.15
2023-01-07T16:50:51.190Z,5.57
2023-01-07T16:53:25.775Z,1.85
2023-01-07T16:55:55.935Z,2.67
2023-01-07T16:58:30.293Z,1.70
2023-01-07T17:01:01.374Z,3.15
2023-01-07T17:03:31.183Z,1.92
2023-01-07T17:06:07.194Z,1.95
2023-01-07T17:08:37.211Z,2.63
2023-01-07T17:11:09.310Z,2.33
2023-01-07T17:13:39.739Z,3.33
2023-01-07T17:16:32.136Z,1.95
2023-01-07T17:19:25.461Z,2.28
2023-01-07T17:21:59.837Z,3.08
2023-01-07T17:24:48.264Z,2.63
2023-01-07T17:27:25.629Z,3.28
2023-01-07T17:29:54.398Z,2.25
2023-01-07T17:32:24.259Z,1.75
2023-01-07T17:34:53.844Z,2.95
2023-01-07T17:37:21.961Z,2.40
2023-01-07T17:39:51.437Z,2.25
2023-01-07T17:42:42.028Z,1.92
2023-01-07T17:45:16.398Z,3.20
2023-01-07T17:47:44.613Z,1.52
2023-01-07T17:50:16.335Z,2.17
2023-01-07T17:52:47.147Z,2.55
2023-01-07T17:55:17.509Z,2.25
2023-01-07T17:57:45.693Z,3.83
2023-01-07T18:00:20.238Z,2.88
2023-01-07T18:02:49.249Z,1.65
2023-01-07T18:05:20.605Z,4.00
2023-01-07T18:07:49.876Z,5.88
2023-01-07T18:10:22.874Z,3.42
2023-01-07T18:12:50.316Z,3.08
2023-01-07T18:15:22.633Z,2.92
2023-01-07T18:17:53.906Z,4.25
2023-01-07T18:20:23.996Z,2.60
2023-01-07T18:22:52.121Z,3.10
2023-01-07T18:25:21.887Z,2.08
2023-01-07T18:27:53.257Z,2.83
2023-01-07T18:30:25.895Z,2.25
2023-01-07T18:32:54.401Z,7.95
2023-01-07T18:35:24.113Z,6.32
2023-01-07T18:37:55.220Z,3.55
2023-01-07T18:40:23.579Z,2.83
2023-01-07T18:42:53.702Z,1.60
2023-01-07T18:45:22.035Z,3.38
2023-01-07T18:47:50.560Z,2.53
2023-01-07T18:50:18.880Z,3.75
2023-01-07T18:52:51.423Z,2.13
2023-01-07T18:55:20.960Z,2.70
2023-01-07T18:57:49.270Z,2.35
2023-01-07T19:00:18.240Z,3.58
2023-01-07T19:02:46.607Z,2.92
2023-01-07T19:05:14.736Z,1.90
2023-01-07T19:07:43.426Z,2.33
2023-01-07T19:10:13.502Z,2.58
2023-01-07T19:12:41.655Z,2.67
2023-01-07T19:15:10.655Z,2.50
2023-01-07T19:17:41.959Z,2.45
2023-01-07T19:20:12.576Z,3.92
2023-01-07T19:22:40.795Z,8.80
2023-01-07T19:25:09.666Z,4.53
2023-01-07T19:27:41.677Z,3.53
2023-01-07T19:30:13.813Z,2.00
2023-01-07T19:32:41.954Z,2.63
2023-01-07T19:35:10.535Z,2.30
2023-01-07T19:37:38.940Z,4.13
2023-01-07T19:40:12.352Z,2.60
2023-01-07T19:42:42.020Z,1.95
2023-01-07T19:45:11.090Z,2.13
2023-01-07T19:47:39.387Z,2.45
2023-01-07T19:50:08.541Z,3.05
2023-01-07T19:52:36.748Z,3.15
2023-01-07T19:55:05.548Z,3.97
2023-01-07T19:57:34.419Z,3.60
2023-01-07T20:00:04.217Z,3.25
2023-01-07T20:02:32.652Z,3.53
2023-01-07T20:05:00.982Z,2.30
2023-01-07T20:07:33.967Z,3.00
2023-01-07T20:10:05.628Z,2.97
2023-01-07T20:12:34.240Z,4.75
2023-01-07T20:15:07.762Z,2.75
2023-01-07T20:17:38.311Z,4.15
2023-01-07T20:20:09.137Z,2.33
2023-01-07T20:22:39.735Z,3.65
2023-01-07T20:25:09.351Z,2.75
2023-01-07T20:27:38.327Z,2.83
2023-01-07T20:30:09.593Z,3.20
2023-01-07T20:32:37.731Z,4.53
2023-01-07T20:35:07.140Z,3.03
2023-01-07T20:37:36.508Z,3.13
2023-01-07T20:40:05.345Z,5.45
2023-01-07T20:42:33.482Z,2.97
2023-01-07T20:45:01.634Z,2.92
2023-01-07T20:47:31.200Z,3.47
2023-01-07T20:49:59.312Z,2.45
2023-01-07T20:52:27.547Z,2.75
2023-01-07T20:54:55.746Z,3.85
2023-01-07T20:57:24.015Z,2.40
2023-01-07T20:59:52.164Z,4.13
2023-01-07T21:02:20.444Z,2.63
2023-01-07T21:04:51.726Z,2.50
2023-01-07T21:07:19.915Z,3.97
2023-01-07T21:09:48.121Z,2.47
2023-01-07T21:12:16.353Z,3.83
2023-01-07T21:14:44.495Z,2.35
2023-01-07T21:17:13.478Z,3.20
2023-01-07T21:19:41.701Z,3.17
2023-01-07T21:22:15.716Z,2.45
2023-01-07T21:24:46.651Z,2.15
2023-01-07T21:27:15.235Z,3.47
2023-01-07T21:29:43.473Z,2.28
2023-01-07T21:32:11.758Z,2.97
2023-01-07T21:34:39.982Z,5.32
2023-01-07T21:37:08.222Z,2.20
2023-01-07T21:39:40.185Z,3.33
2023-01-07T21:42:09.348Z,3.20
2023-01-07T21:44:37.539Z,2.90
2023-01-07T21:47:05.776Z,3.67
2023-01-07T21:49:34.023Z,7.80
2023-01-07T21:52:02.178Z,4.53
2023-01-07T21:54:30.369Z,4.10
2023-01-07T21:56:59.900Z,2.80
2023-01-07T21:59:28.503Z,3.50
2023-01-07T22:01:56.919Z,3.83
2023-01-07T22:04:25.636Z,3.60
2023-01-07T22:06:54.123Z,3.72
2023-01-07T22:09:24.155Z,3.60
2023-01-07T22:11:52.369Z,3.05
2023-01-07T22:14:23.972Z,4.35
2023-01-07T22:16:52.212Z,3.05
2023-01-07T22:19:25.861Z,3.88
2023-01-07T22:21:54.072Z,4.80
2023-01-07T22:24:22.385Z,2.40
2023-01-07T22:26:50.581Z,3.08
2023-01-07T22:29:18.756Z,3.80
2023-01-07T22:31:50.996Z,5.10
2023-01-07T22:34:19.284Z,4.13
2023-01-07T22:36:51.842Z,3.28
2023-01-07T22:39:23.915Z,2.80
2023-01-07T22:41:56.265Z,3.47
2023-01-07T22:44:29.933Z,3.25
2023-01-07T22:46:59.700Z,3.95
2023-01-07T22:49:30.227Z,3.30
2023-01-07T22:51:58.621Z,4.30
2023-01-07T22:54:27.474Z,4.03
2023-01-07T22:56:55.860Z,3.45
2023-01-07T22:59:24.060Z,4.15
2023-01-07T23:01:52.253Z,3.67
2023-01-07T23:04:21.855Z,5.65
2023-01-07T23:06:50.077Z,3.05
2023-01-07T23:09:18.272Z,2.85
2023-01-07T23:11:50.558Z,3.55
2023-01-07T23:14:21.039Z,3.50
2023-01-07T23:16:49.760Z,3.78
2023-01-07T23:19:18.453Z,2.78
2023-01-07T23:21:50.387Z,4.63
2023-01-07T23:24:18.949Z,3.00
2023-01-07T23:26:48.593Z,4.07
2023-01-07T23:29:16.803Z,2.38
2023-01-07T23:31:45.155Z,4.45
2023-01-07T23:34:14.483Z,3.40
2023-01-07T23:36:42.714Z,4.15
2023-01-07T23:39:13.202Z,5.00
2023-01-07T23:41:45.623Z,4.45
2023-01-07T23:44:14.033Z,4.20
2023-01-07T23:46:42.152Z,3.28
2023-01-07T23:49:10.332Z,3.70
2023-01-07T23:51:38.495Z,4.03
2023-01-07T23:54:06.934Z,4.20
2023-01-07T23:56:36.664Z,3.47
2023-01-07T23:59:04.863Z,4.82
